»·PEaware :: N369SE KPMD-KSNA

N369SE :: KPMD-KSNA

FLIGHT INFORMATION

Flight Status: Arrived
Operator: Privately registered:
United States
More flights under this callsign
Pilot: Brad G. (30387)
Aircraft: CIRRUS SR-22
(SR22)
More flights by this aircraft type
Origin: KPMD Palmdale AF Plant 42
United States
Destination: KSNA John Wayne-Orange Co
United States
More flights between these airports :: More routes between these airports
Route: PMD V201 BERRI V459 SLI
File this flight plan on PilotEdge
Remarks:
Altitude:
(Current/Filed)
9,000ft
Speed:
(Current/Filed)
150kts
Departed: 31-Aug-21 11:51 AM
Arrived: 31-Aug-21 12:38 PM
Distance/Time
Traveled:
58nm/0:46
Distance/Time
To Go:
Arrived

Flight Plot

Page will automatically refresh every two minutes.


Map Options




Map Legend


Flown Route
Filed Route
Departure Airport
Arrival Airport
Navaid (VOR, NDB)
Fix

Horizontal Profiles

Position Reports

Time Latitude Longitude Heading Altitude Ground
Speed
31-Aug-21 11:33 34.638855 -118.067881 269 2518ft 0kts
31-Aug-21 11:34 34.638855 -118.067881 269 2518ft 0kts
31-Aug-21 11:40 34.638855 -118.067881 269 2518ft 0kts
31-Aug-21 11:41 34.638855 -118.067881 269 2518ft 0kts
31-Aug-21 11:41 34.638855 -118.067881 269 2518ft 0kts
31-Aug-21 11:43 34.638855 -118.067881 269 2518ft 0kts
31-Aug-21 11:44 34.638852 -118.068222 273 2518ft 4kts
31-Aug-21 11:44 34.638865 -118.069352 259 2518ft 0kts
31-Aug-21 11:46 34.637517 -118.071830 169 2518ft 13kts
31-Aug-21 11:46 34.635774 -118.070660 91 2518ft 8kts
31-Aug-21 11:47 34.635945 -118.066828 99 2518ft 10kts
31-Aug-21 11:48 34.635129 -118.065656 142 2518ft 0kts
31-Aug-21 11:49 34.635127 -118.065655 143 2518ft 0kts
31-Aug-21 11:50 34.631567 -118.069079 230 2518ft 79kts
31-Aug-21 11:51 34.618372 -118.090485 229 3837ft 84kts
31-Aug-21 11:52 34.602836 -118.115461 227 4870ft 100kts
31-Aug-21 11:53 34.580856 -118.122968 116 5863ft 117kts
31-Aug-21 11:54 34.591245 -118.080965 66 6489ft 148kts
31-Aug-21 11:55 34.606850 -118.034904 66 7475ft 146kts
31-Aug-21 11:56 34.635879 -118.008098 6 8499ft 139kts
31-Aug-21 11:57 34.640212 -118.041430 232 9022ft 155kts
31-Aug-21 11:58 34.604577 -118.075481 208 9003ft 168kts
31-Aug-21 11:59 34.561967 -118.100372 204 9000ft 170kts
31-Aug-21 12:00 34.518667 -118.123669 203 8999ft 170kts
31-Aug-21 12:01 34.475336 -118.146664 204 8991ft 171kts
31-Aug-21 12:02 34.431692 -118.169789 204 8990ft 171kts
31-Aug-21 12:03 34.388241 -118.192770 204 8990ft 171kts
31-Aug-21 12:04 34.344801 -118.215740 204 8990ft 171kts
31-Aug-21 12:05 34.301254 -118.238719 204 8990ft 170kts
31-Aug-21 12:06 34.257723 -118.261658 204 8990ft 170kts
31-Aug-21 12:07 34.214325 -118.284504 204 8990ft 170kts
31-Aug-21 12:08 34.169819 -118.277388 155 8992ft 174kts
31-Aug-21 12:09 34.125278 -118.251751 155 8991ft 174kts
31-Aug-21 12:10 34.080337 -118.225784 155 8990ft 174kts
31-Aug-21 12:11 34.033389 -118.206081 181 8873ft 176kts
31-Aug-21 12:12 33.980629 -118.207470 182 8285ft 185kts
31-Aug-21 12:13 33.926301 -118.208891 182 7578ft 189kts
31-Aug-21 12:14 33.870908 -118.210370 182 7003ft 179kts
31-Aug-21 12:15 33.818239 -118.211832 182 6938ft 176kts
31-Aug-21 12:16 33.762501 -118.213333 182 6306ft 183kts
31-Aug-21 12:17 33.723923 -118.186040 92 5622ft 172kts
31-Aug-21 12:18 33.722480 -118.123223 92 4971ft 171kts
31-Aug-21 12:19 33.721057 -118.061094 92 4322ft 171kts
31-Aug-21 12:20 33.720225 -118.005354 92 3623ft 143kts
31-Aug-21 12:21 33.734943 -117.963567 31 3014ft 140kts
31-Aug-21 12:22 33.771450 -117.935638 31 3006ft 166kts
31-Aug-21 12:23 33.810419 -117.906021 31 2982ft 150kts
31-Aug-21 12:24 33.842312 -117.881752 31 3011ft 136kts
31-Aug-21 12:25 33.876592 -117.855440 32 3009ft 149kts
31-Aug-21 12:26 33.911477 -117.827397 56 2980ft 148kts
31-Aug-21 12:27 33.909925 -117.781838 99 2998ft 125kts
31-Aug-21 12:28 33.898077 -117.746306 174 2991ft 119kts
31-Aug-21 12:29 33.865277 -117.751192 199 2977ft 101kts
31-Aug-21 12:30 33.837476 -117.765429 208 3024ft 127kts
31-Aug-21 12:31 33.808335 -117.784266 205 2916ft 97kts
31-Aug-21 12:32 33.783352 -117.800179 203 2367ft 98kts
31-Aug-21 12:33 33.758546 -117.816030 204 1799ft 91kts
31-Aug-21 12:34 33.735810 -117.830564 205 1291ft 87kts
31-Aug-21 12:35 33.714198 -117.844241 201 806ft 84kts
31-Aug-21 12:36 33.693294 -117.857529 201 367ft 78kts
31-Aug-21 12:37 33.676174 -117.868559 208 59ft 20kts
31-Aug-21 12:38 33.676142 -117.870204 297 59ft 10kts

Navigation Log

Ident Type
Flight plan parsing failed, navigation log unavailable